Terminal Aerodrome Forecast
Issued by NWS

Home | Current Version | Previous Version | Text Only | Print | Product List | Glossary On
Versions: 1 2 3 4 5 6 7 8 9 10 11 12 13 14 15 16 17 18 19 20 21 22 23 24 25 26
000
FTUS41 KBTV 301734
TAFPBG
TAF
KPBG 301734Z 3018/3118 16017G27KT P6SM SCT050 SCT120
     FM302000 20012G22KT P6SM VCTS SCT030CB BKN100
     FM310000 20009KT P6SM -SHRA OVC050
     FM310300 26009KT 4SM -RA BR OVC030
     FM310500 31008KT 4SM -RA BR OVC030
     FM311100 36004KT 4SM -RA BR OVC030
     FM311500 00000KT P6SM OVC060=

USA.gov is the U.S. government's official web portal to all federal, state and local government web resources and services.